Time;durP1;ratioP1;P1;durP2;ratioP2;P2;SDS_P1;SDS_P2;PMS_P1;PMS_P2;Temp;Humidity;BMP_temperature;BMP_pressure;BME280_temperature;BME280_humidity;BME280_pressure;Samples;Min_cycle;Max_cycle;Signal;HPM_P1;HPM_P2
2023/09/04 00:01:55;;;;;;;1.20;1.00;;;25.50;54.90;;;;;;5019413;28;20036;-63
2023/09/04 00:04:21;;;;;;;2.25;1.00;;;25.40;54.90;;;;;;5019714;28;20034;-66
2023/09/04 00:06:46;;;;;;;1.30;0.90;;;25.40;54.90;;;;;;5017746;28;20033;-64
2023/09/04 00:09:14;;;;;;;1.30;0.90;;;25.40;54.90;;;;;;5020974;28;20045;-64
2023/09/04 00:11:40;;;;;;;1.27;0.90;;;25.40;54.90;;;;;;5020134;28;20365;-65
2023/09/04 00:14:06;;;;;;;1.63;1.00;;;25.40;54.80;;;;;;5021722;28;20034;-65
2023/09/04 00:16:31;;;;;;;1.17;0.90;;;25.40;54.90;;;;;;5018923;28;20524;-64
2023/09/04 00:18:57;;;;;;;1.00;0.80;;;25.40;54.90;;;;;;5020989;28;20029;-65
2023/09/04 00:21:23;;;;;;;1.20;0.80;;;25.40;54.90;;;;;;5019029;28;20029;-65
2023/09/04 00:23:48;;;;;;;1.38;0.90;;;25.40;54.90;;;;;;5018566;28;20069;-64
2023/09/04 00:26:14;;;;;;;1.05;0.85;;;25.40;54.90;;;;;;5021099;28;20040;-64
2023/09/04 00:28:39;;;;;;;0.98;0.80;;;25.40;54.90;;;;;;5020174;28;20032;-64
2023/09/04 00:31:05;;;;;;;1.10;0.90;;;25.40;54.90;;;;;;5020691;28;20025;-66
2023/09/04 00:33:31;;;;;;;1.02;0.90;;;25.40;54.90;;;;;;5018783;28;20030;-65
2023/09/04 00:35:56;;;;;;;1.20;1.00;;;25.40;54.90;;;;;;5021405;28;20392;-69
2023/09/04 00:38:22;;;;;;;1.58;0.95;;;25.30;55.10;;;;;;5019948;28;20543;-69
2023/09/04 00:40:47;;;;;;;1.58;0.98;;;25.30;54.90;;;;;;5020110;28;20096;-69
2023/09/04 00:43:13;;;;;;;1.30;0.90;;;25.30;54.90;;;;;;5019451;28;20472;-69
2023/09/04 00:45:42;;;;;;;1.30;0.90;;;25.30;54.90;;;;;;5019200;28;20021;-69
2023/09/04 00:48:08;;;;;;;1.38;0.90;;;25.30;54.90;;;;;;5021366;28;20444;-69
2023/09/04 00:50:34;;;;;;;1.25;0.90;;;25.30;54.90;;;;;;5019571;28;20133;-69
2023/09/04 00:53:03;;;;;;;0.80;0.73;;;25.30;55.00;;;;;;5017847;28;20060;-69
2023/09/04 00:55:29;;;;;;;1.38;1.02;;;25.30;55.00;;;;;;5019247;28;20440;-69
2023/09/04 00:57:55;;;;;;;1.23;0.90;;;25.20;55.00;;;;;;5019798;28;20037;-69
2023/09/04 01:00:27;;;;;;;0.93;0.85;;;25.30;55.10;;;;;;5017688;28;20432;-69
2023/09/04 01:02:53;;;;;;;1.10;0.90;;;25.30;55.10;;;;;;5019826;28;20364;-69
2023/09/04 01:05:19;;;;;;;1.20;1.00;;;25.20;55.00;;;;;;5019081;28;20105;-68
2023/09/04 01:07:44;;;;;;;1.00;0.90;;;25.20;55.00;;;;;;5010771;28;20045;-68
2023/09/04 01:10:12;;;;;;;1.55;0.88;;;25.20;55.00;;;;;;5020129;28;20026;-69
2023/09/04 01:12:55;;;;;;;1.23;1.00;;;25.20;55.00;;;;;;5011382;28;20034;-69
2023/09/04 01:15:21;;;;;;;1.15;0.88;;;25.20;55.00;;;;;;5018731;28;20044;-69
2023/09/04 01:17:48;;;;;;;1.50;1.05;;;25.20;55.00;;;;;;5017371;28;20100;-69
2023/09/04 01:20:24;;;;;;;1.13;0.90;;;25.10;55.00;;;;;;5019649;28;20088;-69
2023/09/04 01:22:50;;;;;;;1.30;0.82;;;25.20;55.10;;;;;;5017878;28;20026;-69
2023/09/04 01:25:16;;;;;;;1.10;0.90;;;25.10;55.00;;;;;;5019738;28;20026;-69
2023/09/04 01:27:48;;;;;;;2.08;0.88;;;25.10;55.00;;;;;;5009887;28;20091;-69
2023/09/04 01:30:24;;;;;;;0.93;0.80;;;25.10;55.00;;;;;;5020500;28;20507;-69
2023/09/04 01:33:00;;;;;;;0.80;0.80;;;25.10;55.00;;;;;;5021097;28;20456;-69
2023/09/04 01:35:27;;;;;;;1.27;0.90;;;25.10;55.00;;;;;;5018534;28;20550;-69
2023/09/04 01:37:53;;;;;;;1.30;0.90;;;25.10;55.10;;;;;;5022560;28;20029;-69
2023/09/04 01:40:19;;;;;;;1.02;0.80;;;25.10;55.00;;;;;;5022884;28;20049;-69
2023/09/04 01:42:45;;;;;;;1.10;0.90;;;25.10;55.10;;;;;;5021434;28;20437;-69
2023/09/04 01:45:11;;;;;;;1.17;0.90;;;25.10;55.10;;;;;;5022145;28;20025;-66
2023/09/04 01:47:36;;;;;;;1.42;0.93;;;25.10;55.10;;;;;;5023445;28;20029;-67
2023/09/04 01:50:02;;;;;;;1.10;0.80;;;25.10;55.10;;;;;;5022684;28;20022;-66
2023/09/04 01:52:27;;;;;;;0.98;0.80;;;25.00;55.00;;;;;;5023106;28;20030;-66
2023/09/04 01:54:53;;;;;;;0.95;0.80;;;25.00;55.00;;;;;;5022033;28;20116;-66
2023/09/04 01:57:18;;;;;;;1.63;0.90;;;25.10;55.10;;;;;;5022598;28;20546;-66
2023/09/04 01:59:44;;;;;;;1.10;0.90;;;25.00;55.10;;;;;;5022988;28;20049;-66
2023/09/04 02:02:10;;;;;;;1.17;1.00;;;25.00;55.10;;;;;;5021872;28;20149;-66
2023/09/04 02:04:35;;;;;;;1.15;0.90;;;25.00;55.10;;;;;;5022329;28;20037;-66
2023/09/04 02:07:01;;;;;;;0.90;0.77;;;25.00;55.10;;;;;;5021048;28;20853;-66
2023/09/04 02:09:26;;;;;;;0.85;0.70;;;25.00;55.10;;;;;;5024770;28;20035;-66
2023/09/04 02:11:52;;;;;;;1.23;0.88;;;25.00;55.10;;;;;;5022496;28;20033;-66
2023/09/04 02:14:18;;;;;;;1.20;0.80;;;25.00;55.10;;;;;;5022717;28;20053;-66
2023/09/04 02:16:43;;;;;;;1.08;0.80;;;25.00;55.20;;;;;;5019622;28;20584;-66
2023/09/04 02:19:09;;;;;;;1.10;0.80;;;25.00;55.20;;;;;;5024755;28;20025;-66
2023/09/04 02:21:35;;;;;;;1.00;0.90;;;24.90;55.20;;;;;;5023332;28;20539;-66
2023/09/04 02:24:01;;;;;;;1.02;0.82;;;24.90;55.20;;;;;;5022569;28;20038;-66
2023/09/04 02:26:26;;;;;;;1.25;0.90;;;24.90;55.20;;;;;;5024381;28;20026;-66
2023/09/04 02:28:52;;;;;;;1.13;0.90;;;24.90;55.20;;;;;;5014570;28;20036;-66
2023/09/04 02:31:18;;;;;;;0.88;0.70;;;24.90;55.20;;;;;;5023057;28;20026;-66
2023/09/04 02:33:44;;;;;;;1.10;0.90;;;24.90;55.30;;;;;;5013130;28;20022;-66
2023/09/04 02:36:10;;;;;;;1.40;1.20;;;24.90;55.30;;;;;;5022378;28;20025;-66
2023/09/04 02:38:35;;;;;;;1.00;0.70;;;24.90;55.30;;;;;;5022927;28;20978;-66
2023/09/04 02:41:01;;;;;;;1.13;0.90;;;24.90;55.30;;;;;;5023576;28;20109;-66
2023/09/04 02:43:27;;;;;;;1.13;0.77;;;24.90;55.30;;;;;;5021037;28;20373;-66
2023/09/04 02:45:52;;;;;;;0.88;0.80;;;24.80;55.30;;;;;;5021197;28;20382;-65
2023/09/04 02:48:18;;;;;;;1.00;0.90;;;24.80;55.30;;;;;;5016059;28;20029;-66
2023/09/04 02:50:44;;;;;;;1.13;0.77;;;24.80;55.30;;;;;;5021710;28;20030;-66
2023/09/04 02:53:09;;;;;;;1.17;0.90;;;24.80;55.30;;;;;;5021119;28;20121;-65
2023/09/04 02:55:35;;;;;;;1.00;0.80;;;24.80;55.30;;;;;;5020574;28;20026;-63
2023/09/04 02:58:02;;;;;;;1.00;0.88;;;24.80;55.30;;;;;;5022186;28;20046;-63
2023/09/04 03:00:28;;;;;;;1.15;0.80;;;24.80;55.40;;;;;;5021409;28;20072;-61
2023/09/04 03:02:54;;;;;;;1.25;0.90;;;24.80;55.40;;;;;;5020543;28;20443;-62
2023/09/04 03:05:19;;;;;;;1.17;0.80;;;24.80;55.40;;;;;;5020854;28;20022;-63
2023/09/04 03:07:45;;;;;;;1.35;0.80;;;24.80;55.40;;;;;;5022251;28;20060;-62
2023/09/04 03:10:11;;;;;;;1.27;1.00;;;24.80;55.40;;;;;;5021038;28;20080;-62
2023/09/04 03:12:36;;;;;;;1.30;0.90;;;24.80;55.40;;;;;;5019250;28;20471;-61
2023/09/04 03:15:05;;;;;;;0.70;0.70;;;24.70;55.40;;;;;;5021780;28;20477;-63
2023/09/04 03:17:32;;;;;;;1.05;0.90;;;24.70;55.40;;;;;;5019899;28;20049;-63
2023/09/04 03:19:58;;;;;;;1.38;0.90;;;24.80;55.40;;;;;;5015605;28;20116;-62
2023/09/04 03:22:25;;;;;;;0.80;0.75;;;24.70;55.40;;;;;;5021033;28;20133;-63
2023/09/04 03:24:51;;;;;;;0.85;0.80;;;24.80;55.40;;;;;;5020561;28;20438;-62
2023/09/04 03:27:17;;;;;;;0.88;0.80;;;24.80;55.40;;;;;;5021130;28;20024;-62
2023/09/04 03:29:43;;;;;;;1.30;1.00;;;24.70;55.40;;;;;;5020867;28;20452;-62
2023/09/04 03:32:09;;;;;;;1.33;0.90;;;24.70;55.40;;;;;;5020940;28;20025;-62
2023/09/04 03:34:35;;;;;;;1.10;0.82;;;24.70;55.40;;;;;;5022036;28;20026;-63
2023/09/04 03:37:01;;;;;;;1.27;0.90;;;24.70;55.40;;;;;;5019738;28;20029;-62
2023/09/04 03:39:26;;;;;;;1.30;0.98;;;24.70;55.40;;;;;;5019166;28;20025;-61
2023/09/04 03:41:52;;;;;;;0.93;0.80;;;24.70;55.40;;;;;;5021497;28;20026;-62
2023/09/04 03:44:18;;;;;;;1.50;0.95;;;24.70;55.40;;;;;;5020364;28;20029;-63
2023/09/04 03:46:43;;;;;;;1.20;0.85;;;24.70;55.50;;;;;;5020522;28;20052;-63
2023/09/04 03:49:09;;;;;;;1.00;0.80;;;24.70;56.00;;;;;;5019969;28;20029;-62
2023/09/04 03:51:35;;;;;;;1.02;0.85;;;24.70;55.40;;;;;;5021562;28;20029;-61
2023/09/04 03:54:03;;;;;;;1.20;0.90;;;24.60;55.40;;;;;;5019019;28;20037;-64
2023/09/04 03:56:30;;;;;;;0.90;0.80;;;24.60;55.40;;;;;;5019751;28;20076;-64
2023/09/04 03:58:56;;;;;;;1.25;0.93;;;24.60;55.40;;;;;;5021296;28;20476;-63
2023/09/04 04:01:22;;;;;;;1.48;0.95;;;24.60;55.40;;;;;;5014981;28;20030;-64
2023/09/04 04:03:51;;;;;;;0.98;0.77;;;24.60;55.40;;;;;;5020806;28;20099;-65
2023/09/04 04:06:17;;;;;;;1.00;0.90;;;24.60;55.40;;;;;;5021004;28;20117;-64
2023/09/04 04:08:45;;;;;;;0.80;0.80;;;24.60;55.40;;;;;;5020400;28;20030;-62
2023/09/04 04:11:10;;;;;;;0.98;0.77;;;24.60;55.40;;;;;;5020120;28;20097;-62
2023/09/04 04:13:36;;;;;;;1.52;1.00;;;24.60;55.50;;;;;;5020361;28;20136;-63
2023/09/04 04:16:02;;;;;;;0.93;0.80;;;24.60;55.40;;;;;;5020070;28;20034;-63
2023/09/04 04:18:29;;;;;;;1.10;0.77;;;24.60;55.40;;;;;;5018599;28;20537;-62
2023/09/04 04:20:56;;;;;;;1.20;0.80;;;24.60;55.50;;;;;;5020661;28;20029;-63
2023/09/04 04:23:21;;;;;;;0.88;0.77;;;24.60;55.50;;;;;;5020704;28;20025;-62
2023/09/04 04:25:50;;;;;;;1.08;0.90;;;24.50;55.40;;;;;;5017838;28;20044;-63
2023/09/04 04:28:20;;;;;;;1.20;0.90;;;24.60;55.50;;;;;;5020767;28;20034;-63
2023/09/04 04:30:46;;;;;;;0.98;0.80;;;24.50;55.40;;;;;;5019772;28;20029;-64
2023/09/04 04:33:12;;;;;;;1.38;1.00;;;24.50;55.40;;;;;;5020439;28;20145;-64
2023/09/04 04:35:39;;;;;;;1.02;0.75;;;24.50;55.50;;;;;;5022949;28;20033;-63
2023/09/04 04:38:05;;;;;;;0.95;0.80;;;24.50;55.40;;;;;;5018615;28;20034;-63
2023/09/04 04:40:31;;;;;;;1.05;0.90;;;24.50;55.40;;;;;;5017695;28;20033;-64
2023/09/04 04:42:57;;;;;;;1.02;0.90;;;24.50;55.50;;;;;;5019543;28;20404;-62
2023/09/04 04:45:22;;;;;;;1.10;0.90;;;24.50;55.50;;;;;;5019908;28;20029;-63
2023/09/04 04:47:48;;;;;;;1.20;0.90;;;24.50;55.50;;;;;;5020273;28;20083;-62
2023/09/04 04:50:14;;;;;;;0.82;0.80;;;24.50;55.50;;;;;;5020142;28;20444;-62
2023/09/04 04:52:39;;;;;;;0.80;0.80;;;24.50;56.00;;;;;;5019758;28;20095;-63
2023/09/04 04:55:06;;;;;;;1.05;0.80;;;24.50;55.50;;;;;;5018623;28;20029;-63
2023/09/04 04:57:33;;;;;;;1.10;0.90;;;24.50;55.50;;;;;;5017815;28;20030;-63
2023/09/04 04:59:59;;;;;;;1.08;0.80;;;24.50;55.50;;;;;;5019634;28;20722;-63
2023/09/04 05:02:25;;;;;;;1.20;1.00;;;24.50;55.50;;;;;;5019280;28;20045;-64
2023/09/04 05:04:51;;;;;;;0.75;0.75;;;24.50;55.50;;;;;;5018818;28;20033;-64
2023/09/04 05:07:16;;;;;;;0.88;0.85;;;24.50;55.50;;;;;;5018051;28;20022;-64
2023/09/04 05:09:42;;;;;;;1.02;0.90;;;24.50;55.50;;;;;;5020126;28;20030;-63
2023/09/04 05:12:08;;;;;;;0.90;0.80;;;24.40;55.50;;;;;;5019926;28;20029;-63
2023/09/04 05:14:34;;;;;;;1.00;0.90;;;24.50;55.50;;;;;;5019862;28;20033;-62
2023/09/04 05:16:59;;;;;;;1.20;0.90;;;24.40;55.50;;;;;;5019523;28;20037;-66
2023/09/04 05:19:25;;;;;;;0.98;0.80;;;24.50;55.60;;;;;;5019426;28;20025;-67
2023/09/04 05:21:51;;;;;;;0.80;0.80;;;24.40;55.50;;;;;;5020319;28;20373;-66
2023/09/04 05:24:16;;;;;;;1.00;0.80;;;24.40;55.50;;;;;;5018186;28;20102;-66
2023/09/04 05:26:42;;;;;;;0.70;0.70;;;24.50;55.60;;;;;;5018379;28;20566;-66
2023/09/04 05:29:08;;;;;;;1.05;0.93;;;24.40;55.50;;;;;;5018721;28;20511;-67
2023/09/04 05:31:33;;;;;;;1.00;0.90;;;24.40;55.50;;;;;;5018415;28;20481;-67
2023/09/04 05:33:59;;;;;;;1.30;0.90;;;24.40;55.50;;;;;;5020596;28;20105;-67
2023/09/04 05:36:24;;;;;;;0.95;0.80;;;24.40;55.50;;;;;;5018605;28;20121;-67
2023/09/04 05:38:50;;;;;;;1.42;1.15;;;24.40;55.50;;;;;;5018172;28;20037;-66
2023/09/04 05:41:16;;;;;;;0.75;0.75;;;24.40;55.50;;;;;;5019581;28;20025;-67
2023/09/04 05:43:41;;;;;;;0.93;0.80;;;24.40;55.50;;;;;;5017485;28;20397;-67
2023/09/04 05:46:07;;;;;;;0.80;0.80;;;24.40;55.50;;;;;;5020659;28;20112;-67
2023/09/04 05:48:36;;;;;;;1.50;0.85;;;24.40;55.50;;;;;;5018856;28;20498;-66
2023/09/04 05:51:02;;;;;;;1.13;0.90;;;24.40;55.50;;;;;;5018235;28;20112;-67
2023/09/04 05:53:29;;;;;;;0.98;0.88;;;24.40;55.50;;;;;;5018799;28;20033;-67
2023/09/04 05:56:10;;;;;;;1.15;0.90;;;24.40;55.50;;;;;;5019507;28;20908;-66
2023/09/04 05:58:42;;;;;;;0.85;0.77;;;24.40;55.50;;;;;;5019652;28;20024;-66
2023/09/04 06:01:08;;;;;;;1.48;0.95;;;24.40;55.50;;;;;;5028862;28;20030;-66
2023/09/04 06:03:34;;;;;;;1.00;0.90;;;24.40;55.50;;;;;;5018372;28;20036;-66
2023/09/04 06:05:59;;;;;;;0.80;0.70;;;24.30;55.50;;;;;;5018867;28;20079;-66
2023/09/04 06:08:25;;;;;;;1.10;0.90;;;24.40;55.60;;;;;;5018530;28;20029;-66
2023/09/04 06:10:50;;;;;;;1.10;0.80;;;24.30;55.50;;;;;;5018451;28;20029;-66
2023/09/04 06:13:17;;;;;;;1.00;0.90;;;24.30;55.50;;;;;;5017173;28;20366;-66
2023/09/04 06:15:43;;;;;;;1.02;0.90;;;24.30;55.50;;;;;;5019485;28;20041;-66
2023/09/04 06:18:08;;;;;;;0.77;0.77;;;24.30;55.50;;;;;;5018897;28;20127;-66
2023/09/04 06:20:34;;;;;;;1.08;0.90;;;24.30;55.50;;;;;;5017497;28;20029;-66
2023/09/04 06:23:01;;;;;;;0.82;0.80;;;24.30;55.50;;;;;;5019813;28;20044;-66
2023/09/04 06:25:27;;;;;;;0.95;0.80;;;24.30;55.60;;;;;;5021029;28;20109;-62
2023/09/04 06:27:52;;;;;;;0.73;0.73;;;24.30;55.60;;;;;;5021977;28;20105;-63
2023/09/04 06:30:18;;;;;;;1.40;0.90;;;24.30;55.60;;;;;;5022284;28;20029;-64
2023/09/04 06:32:44;;;;;;;0.70;0.70;;;24.30;55.60;;;;;;5018253;28;20642;-64
2023/09/04 06:35:09;;;;;;;1.17;0.90;;;24.30;55.60;;;;;;5022995;28;20170;-62
2023/09/04 06:37:35;;;;;;;1.00;0.90;;;24.30;55.60;;;;;;5019423;28;20029;-64
2023/09/04 06:40:02;;;;;;;0.90;0.80;;;24.30;55.60;;;;;;5021979;28;20105;-64
2023/09/04 06:42:27;;;;;;;0.82;0.82;;;24.30;55.60;;;;;;5020548;28;20033;-63
2023/09/04 06:44:53;;;;;;;1.02;0.90;;;24.30;55.60;;;;;;5022606;28;20025;-64
2023/09/04 06:47:18;;;;;;;1.25;1.00;;;24.30;55.60;;;;;;5021476;28;20080;-63
2023/09/04 06:49:44;;;;;;;1.00;0.90;;;24.30;55.60;;;;;;5021476;28;20038;-62
2023/09/04 06:52:09;;;;;;;1.10;0.90;;;24.30;55.60;;;;;;5020848;28;20053;-62
2023/09/04 06:54:35;;;;;;;1.00;0.88;;;24.20;55.50;;;;;;5021567;28;20026;-63
2023/09/04 06:57:02;;;;;;;1.23;0.93;;;24.30;55.60;;;;;;5021994;28;20085;-62
2023/09/04 06:59:27;;;;;;;1.23;1.10;;;24.30;55.60;;;;;;5021486;28;20366;-63
2023/09/04 07:01:53;;;;;;;1.10;0.90;;;24.30;55.60;;;;;;5020212;28;20029;-63
2023/09/04 07:04:19;;;;;;;1.50;1.00;;;24.20;55.50;;;;;;5022599;28;20142;-63
2023/09/04 07:06:44;;;;;;;1.30;0.90;;;24.20;55.50;;;;;;5021829;28;20036;-62
2023/09/04 07:09:10;;;;;;;1.35;1.02;;;24.20;56.00;;;;;;5020423;28;20057;-62
2023/09/04 07:11:36;;;;;;;1.10;0.93;;;24.20;55.50;;;;;;5023348;28;20030;-62
2023/09/04 07:14:02;;;;;;;1.33;1.00;;;24.20;55.50;;;;;;5021402;28;20026;-63
2023/09/04 07:16:28;;;;;;;1.13;0.90;;;24.20;55.50;;;;;;5019926;28;20041;-62
2023/09/04 07:18:54;;;;;;;1.40;1.10;;;24.20;55.50;;;;;;5020809;28;20112;-63
2023/09/04 07:21:20;;;;;;;0.80;0.80;;;24.20;55.50;;;;;;5021057;28;20051;-64
2023/09/04 07:23:46;;;;;;;1.30;1.00;;;24.20;55.40;;;;;;5022285;28;20045;-62
2023/09/04 07:26:11;;;;;;;1.02;0.90;;;24.20;55.40;;;;;;5021673;28;20457;-63
2023/09/04 07:28:37;;;;;;;1.38;1.00;;;24.20;55.40;;;;;;5019617;28;20033;-62
2023/09/04 07:31:19;;;;;;;1.15;0.98;;;24.20;55.40;;;;;;5020650;28;20052;-63
2023/09/04 07:33:49;;;;;;;1.35;1.02;;;24.20;55.40;;;;;;5020673;28;20038;-63
2023/09/04 07:36:15;;;;;;;1.35;1.10;;;24.20;55.40;;;;;;5020619;28;20045;-69
2023/09/04 07:38:42;;;;;;;1.20;1.00;;;24.20;55.40;;;;;;5022845;28;20025;-69
2023/09/04 07:41:08;;;;;;;1.30;1.00;;;24.20;55.50;;;;;;5019928;28;20112;-70
2023/09/04 07:43:33;;;;;;;1.17;1.00;;;24.10;55.40;;;;;;5020779;28;20560;-70
2023/09/04 07:46:02;;;;;;;1.55;1.05;;;24.10;55.50;;;;;;5018931;28;20082;-68
2023/09/04 07:48:28;;;;;;;1.35;1.10;;;24.10;55.40;;;;;;5021213;28;20513;-69
2023/09/04 07:50:54;;;;;;;1.60;1.20;;;24.10;55.50;;;;;;5019241;28;20477;-69
2023/09/04 07:53:21;;;;;;;1.08;0.90;;;24.10;55.40;;;;;;5021489;28;20032;-68
2023/09/04 07:55:47;;;;;;;1.13;1.00;;;24.10;55.40;;;;;;5020888;28;20029;-69
2023/09/04 07:58:13;;;;;;;1.50;1.10;;;24.10;55.50;;;;;;5019343;28;20072;-69
2023/09/04 08:00:49;;;;;;;1.63;1.10;;;24.10;55.50;;;;;;5019382;28;20053;-68
2023/09/04 08:03:15;;;;;;;1.48;1.17;;;24.10;56.00;;;;;;5020695;28;20042;-70
2023/09/04 08:05:40;;;;;;;1.42;1.10;;;24.10;55.50;;;;;;5019386;28;20026;-69
2023/09/04 08:08:10;;;;;;;1.55;1.10;;;24.10;55.50;;;;;;5018754;28;20026;-69
2023/09/04 08:10:40;;;;;;;1.10;1.00;;;24.10;55.50;;;;;;5020264;28;20034;-69
2023/09/04 08:13:14;;;;;;;1.45;1.17;;;24.10;55.50;;;;;;5019680;28;20026;-69
2023/09/04 08:15:40;;;;;;;1.40;1.20;;;24.10;55.50;;;;;;5019391;28;20061;-69
2023/09/04 08:18:07;;;;;;;1.40;1.10;;;24.10;55.50;;;;;;5019183;28;20473;-69
2023/09/04 08:20:33;;;;;;;1.30;1.10;;;24.10;55.50;;;;;;5021804;28;20033;-69
2023/09/04 08:22:59;;;;;;;1.45;1.20;;;24.10;55.50;;;;;;5018896;28;20026;-69
2023/09/04 08:25:25;;;;;;;1.67;1.13;;;24.10;55.50;;;;;;5017746;28;20081;-69
2023/09/04 08:27:51;;;;;;;1.23;1.10;;;24.10;55.40;;;;;;5019465;28;20504;-69
2023/09/04 08:30:17;;;;;;;1.75;1.23;;;24.10;55.40;;;;;;5018098;28;20041;-69
2023/09/04 08:32:44;;;;;;;2.28;1.25;;;24.10;55.40;;;;;;5018935;28;20175;-67
2023/09/04 08:35:09;;;;;;;2.38;1.48;;;24.10;55.50;;;;;;5019023;28;20021;-65
2023/09/04 08:37:35;;;;;;;2.08;1.40;;;24.10;55.50;;;;;;5020664;28;20049;-66
2023/09/04 08:40:01;;;;;;;1.95;1.40;;;24.20;55.40;;;;;;5018378;28;20168;-66
2023/09/04 08:42:28;;;;;;;2.50;1.60;;;24.20;55.30;;;;;;5020239;28;20496;-66
2023/09/04 08:44:56;;;;;;;2.03;1.40;;;24.30;55.30;;;;;;5019132;28;20068;-66
2023/09/04 08:47:22;;;;;;;2.20;1.60;;;24.20;55.10;;;;;;5020390;28;20033;-69
2023/09/04 08:49:48;;;;;;;2.67;1.50;;;24.30;55.10;;;;;;5019530;28;20347;-69
2023/09/04 08:52:14;;;;;;;1.73;1.38;;;24.30;55.10;;;;;;5019520;28;20037;-69
2023/09/04 08:54:40;;;;;;;2.22;1.58;;;24.30;55.10;;;;;;5020566;28;20228;-69
2023/09/04 08:57:08;;;;;;;2.20;1.50;;;24.30;55.10;;;;;;5011727;28;20120;-69
2023/09/04 08:59:34;;;;;;;2.17;1.60;;;24.30;55.10;;;;;;5019060;28;20405;-69
2023/09/04 09:02:04;;;;;;;2.50;1.60;;;24.30;55.10;;;;;;5018802;28;20119;-69
2023/09/04 09:04:30;;;;;;;1.70;1.42;;;24.30;55.10;;;;;;5017417;28;20026;-69
2023/09/04 09:06:57;;;;;;;1.92;1.50;;;24.30;55.00;;;;;;5018878;28;20168;-69
2023/09/04 09:09:24;;;;;;;1.92;1.50;;;24.30;55.00;;;;;;5018841;28;20018;-68
2023/09/04 09:11:53;;;;;;;2.30;1.27;;;24.40;55.00;;;;;;5019343;28;20461;-68
2023/09/04 09:14:20;;;;;;;1.85;1.35;;;24.40;55.10;;;;;;5019489;28;20453;-69
2023/09/04 09:16:46;;;;;;;2.22;1.38;;;24.40;55.10;;;;;;5018882;28;20038;-69
2023/09/04 09:19:13;;;;;;;1.70;1.20;;;24.40;55.20;;;;;;5019166;28;20037;-69
2023/09/04 09:21:39;;;;;;;1.63;1.20;;;24.40;55.30;;;;;;5018102;28;20033;-68
2023/09/04 09:24:17;;;;;;;1.20;1.10;;;24.40;55.30;;;;;;5018898;28;20041;-69
2023/09/04 09:26:50;;;;;;;1.70;1.20;;;24.40;55.20;;;;;;5019189;28;20029;-69
2023/09/04 09:29:18;;;;;;;1.73;1.33;;;24.40;55.20;;;;;;5021310;28;20021;-69
2023/09/04 09:31:45;;;;;;;1.65;1.25;;;24.50;55.10;;;;;;5018827;28;20111;-69
2023/09/04 09:34:11;;;;;;;1.60;1.30;;;24.50;55.10;;;;;;5018360;28;20076;-70
2023/09/04 09:36:38;;;;;;;1.88;1.30;;;24.50;55.00;;;;;;5019452;28;20045;-69
2023/09/04 09:39:05;;;;;;;1.85;1.50;;;24.50;55.00;;;;;;5018258;28;20034;-70
2023/09/04 09:41:31;;;;;;;1.60;1.30;;;24.50;54.90;;;;;;5015120;28;20391;-70
2023/09/04 09:44:00;;;;;;;1.50;1.27;;;24.50;55.40;;;;;;5017777;28;20037;-70
2023/09/04 09:46:28;;;;;;;1.60;1.40;;;24.50;54.90;;;;;;5019915;28;22084;-66
2023/09/04 09:48:54;;;;;;;1.65;1.40;;;24.60;54.90;;;;;;5018611;28;20105;-66
2023/09/04 09:51:20;;;;;;;1.73;1.40;;;24.50;54.80;;;;;;5019152;28;20018;-66
2023/09/04 09:53:50;;;;;;;2.42;1.73;;;24.60;54.80;;;;;;5018846;28;20040;-66
2023/09/04 09:56:18;;;;;;;1.98;1.30;;;24.60;54.90;;;;;;5017235;28;20033;-66
2023/09/04 09:58:46;;;;;;;1.90;1.50;;;24.60;54.80;;;;;;5021214;28;20057;-67
2023/09/04 10:01:12;;;;;;;1.80;1.40;;;24.60;54.80;;;;;;5022584;28;20026;-66
2023/09/04 10:03:38;;;;;;;1.90;1.40;;;24.60;54.80;;;;;;5023164;28;20025;-67
2023/09/04 10:06:05;;;;;;;2.20;1.40;;;24.60;55.30;;;;;;5021893;28;20026;-67
2023/09/04 10:08:38;;;;;;;1.67;1.40;;;24.60;54.80;;;;;;5022417;28;20026;-66
2023/09/04 10:11:07;;;;;;;2.05;1.60;;;24.60;54.80;;;;;;5023069;28;20040;-67
2023/09/04 10:13:38;;;;;;;1.58;1.40;;;24.60;54.80;;;;;;5022804;28;20135;-66
2023/09/04 10:16:11;;;;;;;2.40;1.50;;;24.60;54.80;;;;;;5015729;28;20110;-66
2023/09/04 10:18:42;;;;;;;2.00;1.60;;;24.60;54.80;;;;;;5022166;28;20485;-66
2023/09/04 10:21:13;;;;;;;2.30;1.60;;;24.50;54.70;;;;;;5019795;28;20032;-67
2023/09/04 10:23:53;;;;;;;2.40;1.50;;;24.50;54.70;;;;;;5021744;28;20036;-66
2023/09/04 10:26:41;;;;;;;2.20;1.50;;;24.50;54.90;;;;;;5021184;28;20022;-66
2023/09/04 10:29:16;;;;;;;1.95;1.40;;;24.50;55.10;;;;;;5021767;28;20131;-66
2023/09/04 10:31:43;;;;;;;1.60;1.33;;;24.50;55.00;;;;;;5021839;28;20500;-66
2023/09/04 10:34:09;;;;;;;1.75;1.40;;;24.50;55.00;;;;;;5022235;28;20029;-66
2023/09/04 10:36:37;;;;;;;2.45;1.45;;;24.50;55.50;;;;;;5022998;28;20070;-66
2023/09/04 10:39:03;;;;;;;2.13;1.38;;;24.50;55.00;;;;;;5021698;28;20029;-67
2023/09/04 10:41:31;;;;;;;1.85;1.33;;;24.50;55.00;;;;;;5021962;28;20490;-66
2023/09/04 10:43:56;;;;;;;2.33;1.42;;;24.50;55.00;;;;;;5021697;28;20032;-66
2023/09/04 10:46:23;;;;;;;3.25;1.60;;;24.50;55.10;;;;;;5022164;28;20045;-66
2023/09/04 10:48:53;;;;;;;2.10;1.45;;;24.50;55.10;;;;;;5023551;28;20022;-66
2023/09/04 10:51:35;;;;;;;1.73;1.40;;;24.50;55.10;;;;;;5022672;28;20069;-66
2023/09/04 10:54:07;;;;;;;2.00;1.50;;;24.50;55.20;;;;;;5022673;28;20151;-66
2023/09/04 10:56:55;;;;;;;1.77;1.30;;;24.50;55.20;;;;;;5021377;28;20040;-66
2023/09/04 10:59:21;;;;;;;2.17;1.70;;;24.50;55.20;;;;;;5017033;28;20037;-66
2023/09/04 11:01:47;;;;;;;1.85;1.40;;;24.50;55.10;;;;;;5021743;28;20095;-66
2023/09/04 11:04:46;;;;;;;2.33;1.60;;;24.50;55.10;;;;;;5022463;28;20037;-67
2023/09/04 11:07:21;;;;;;;1.98;1.42;;;24.50;55.10;;;;;;5020151;28;20407;-66
2023/09/04 11:09:58;;;;;;;2.55;1.60;;;24.50;55.20;;;;;;5018441;28;20065;-66
2023/09/04 11:12:26;;;;;;;2.08;1.58;;;24.50;55.20;;;;;;5020596;28;20084;-66
2023/09/04 11:14:54;;;;;;;1.75;1.48;;;24.50;55.20;;;;;;5021101;28;20026;-66
2023/09/04 11:17:40;;;;;;;2.17;1.70;;;24.50;55.20;;;;;;5020929;28;20139;-66
2023/09/04 11:20:06;;;;;;;1.88;1.48;;;24.40;55.20;;;;;;5022604;28;20451;-66
2023/09/04 11:22:33;;;;;;;1.80;1.40;;;24.50;55.20;;;;;;5020095;28;20025;-66
2023/09/04 11:25:00;;;;;;;2.25;1.50;;;24.40;55.20;;;;;;5013875;28;20070;-66
2023/09/04 11:27:27;;;;;;;2.00;1.50;;;24.40;55.20;;;;;;5018497;28;20481;-66
2023/09/04 11:29:53;;;;;;;1.90;1.50;;;24.40;55.20;;;;;;5020482;28;20331;-66
2023/09/04 11:32:19;;;;;;;2.22;1.60;;;24.40;55.20;;;;;;5020180;28;20100;-66
2023/09/04 11:34:50;;;;;;;2.00;1.48;;;24.40;55.20;;;;;;5021005;28;20045;-66
2023/09/04 11:37:16;;;;;;;1.85;1.40;;;24.40;55.20;;;;;;5020166;28;20069;-66
2023/09/04 11:39:51;;;;;;;2.72;1.50;;;24.40;55.20;;;;;;5019220;28;20071;-66
2023/09/04 11:42:20;;;;;;;2.30;1.50;;;24.40;55.20;;;;;;5019976;28;20076;-66
2023/09/04 11:44:45;;;;;;;1.58;1.30;;;24.40;55.20;;;;;;5019010;28;20489;-66
2023/09/04 11:47:11;;;;;;;1.88;1.35;;;24.40;55.20;;;;;;5019164;28;20044;-66
2023/09/04 11:49:37;;;;;;;1.65;1.30;;;24.40;55.20;;;;;;5022921;28;20137;-66
2023/09/04 11:52:03;;;;;;;1.73;1.40;;;24.40;55.20;;;;;;5019189;28;20101;-66
2023/09/04 11:54:30;;;;;;;2.53;1.55;;;24.40;55.20;;;;;;5020179;28;20510;-66
2023/09/04 11:56:58;;;;;;;1.92;1.50;;;24.40;55.20;;;;;;5019006;28;20146;-66
2023/09/04 11:59:24;;;;;;;2.20;1.52;;;24.40;55.20;;;;;;5019197;28;20038;-66
2023/09/04 12:01:49;;;;;;;2.33;1.60;;;24.40;55.20;;;;;;5019094;28;20064;-66
2023/09/04 12:04:15;;;;;;;1.90;1.40;;;24.40;55.80;;;;;;5020729;28;20037;-66
2023/09/04 12:06:41;;;;;;;2.00;1.58;;;24.40;55.70;;;;;;5022033;28;20021;-66
2023/09/04 12:09:07;;;;;;;1.67;1.35;;;24.40;55.60;;;;;;5020750;28;20141;-66
2023/09/04 12:11:33;;;;;;;1.88;1.33;;;24.40;55.50;;;;;;5022122;28;20033;-66
2023/09/04 12:14:11;;;;;;;2.75;1.52;;;24.40;55.50;;;;;;5020448;28;20091;-66
2023/09/04 12:16:37;;;;;;;2.05;1.50;;;24.40;55.40;;;;;;5021508;28;20056;-69
2023/09/04 12:19:05;;;;;;;2.85;1.60;;;24.40;55.40;;;;;;5020180;28;20026;-68
2023/09/04 12:21:30;;;;;;;3.75;2.20;;;24.40;55.40;;;;;;5019057;28;20067;-69
2023/09/04 12:23:58;;;;;;;2.10;1.70;;;24.40;55.40;;;;;;5019031;28;20058;-69
2023/09/04 12:26:23;;;;;;;1.67;1.38;;;24.40;55.50;;;;;;5019365;28;20454;-69
2023/09/04 12:28:51;;;;;;;1.83;1.30;;;24.40;55.50;;;;;;5018223;28;20022;-69
2023/09/04 12:31:20;;;;;;;2.58;1.55;;;24.40;55.50;;;;;;5022000;28;20493;-68
2023/09/04 12:33:47;;;;;;;1.50;1.30;;;24.40;55.50;;;;;;5020575;28;20025;-69
2023/09/04 12:36:20;;;;;;;2.00;1.42;;;24.40;55.40;;;;;;5022327;28;20076;-68
2023/09/04 12:38:46;;;;;;;1.67;1.27;;;24.40;55.40;;;;;;5011468;28;20502;-68
2023/09/04 12:41:11;;;;;;;2.25;1.58;;;24.40;55.40;;;;;;5019641;28;20029;-69
2023/09/04 12:43:37;;;;;;;2.28;1.60;;;24.40;55.40;;;;;;5018836;28;20069;-69
2023/09/04 12:46:03;;;;;;;2.67;1.75;;;24.40;55.40;;;;;;5019352;28;20036;-68
2023/09/04 12:48:28;;;;;;;2.75;1.80;;;24.40;55.40;;;;;;5018918;28;20014;-68